createdAt,value
2019-02-28T00:01:56.347Z,24.10
2019-02-28T00:04:23.380Z,25.32
2019-02-28T00:06:50.756Z,26.85
2019-02-28T00:09:17.969Z,26.45
2019-02-28T00:11:45.179Z,25.70
2019-02-28T00:14:12.614Z,25.05
2019-02-28T00:16:40.678Z,26.17
2019-02-28T00:19:07.711Z,24.65
2019-02-28T00:21:37.316Z,25.57
2019-02-28T00:24:03.740Z,24.87
2019-02-28T00:26:30.789Z,24.75
2019-02-28T00:29:00.476Z,25.12
2019-02-28T00:31:27.157Z,25.95
2019-02-28T00:33:54.201Z,27.42
2019-02-28T00:36:21.195Z,27.02
2019-02-28T00:38:48.193Z,26.30
2019-02-28T00:41:15.577Z,26.27
2019-02-28T00:43:43.588Z,25.60
2019-02-28T00:46:11.033Z,27.93
2019-02-28T00:48:38.116Z,26.45
2019-02-28T00:51:05.095Z,28.12
2019-02-28T00:53:32.111Z,26.73
2019-02-28T00:55:59.128Z,26.85
2019-02-28T00:58:28.956Z,27.35
2019-02-28T01:00:56.067Z,28.65
2019-02-28T01:03:26.589Z,28.02
2019-02-28T01:05:52.809Z,30.70
2019-02-28T01:08:22.168Z,29.90
2019-02-28T01:10:48.872Z,29.45
2019-02-28T01:13:15.874Z,29.37
2019-02-28T01:15:45.090Z,28.77
2019-02-28T01:18:12.263Z,29.40
2019-02-28T01:20:40.335Z,30.17
2019-02-28T01:23:08.088Z,29.57
2019-02-28T01:25:37.197Z,29.27
2019-02-28T01:28:04.567Z,31.17
2019-02-28T01:30:33.451Z,28.87
2019-02-28T01:33:00.522Z,29.40
2019-02-28T01:35:28.209Z,31.48
2019-02-28T01:37:55.626Z,30.75
2019-02-28T01:40:22.612Z,29.70
2019-02-28T01:42:54.006Z,29.67
2019-02-28T01:45:18.918Z,30.88
2019-02-28T01:47:45.957Z,30.02
2019-02-28T01:50:13.524Z,31.07
2019-02-28T01:52:44.848Z,31.60
2019-02-28T01:55:10.343Z,30.12
2019-02-28T01:57:42.370Z,31.27
2019-02-28T02:00:09.142Z,31.33
2019-02-28T02:02:38.012Z,31.52
2019-02-28T02:05:06.058Z,32.05
2019-02-28T02:07:34.767Z,31.27
2019-02-28T02:10:07.144Z,33.02
2019-02-28T02:12:34.966Z,29.42
2019-02-28T02:15:03.176Z,31.35
2019-02-28T02:17:32.223Z,30.23
2019-02-28T02:19:59.964Z,31.75
2019-02-28T02:22:26.978Z,29.85
2019-02-28T02:24:54.018Z,31.82
2019-02-28T02:27:21.267Z,31.15
2019-02-28T02:29:48.653Z,32.38
2019-02-28T02:32:15.666Z,31.45
2019-02-28T02:34:42.977Z,31.68
2019-02-28T02:37:12.942Z,33.40
2019-02-28T02:39:40.636Z,33.05
2019-02-28T02:42:11.428Z,32.13
2019-02-28T02:44:36.936Z,31.50
2019-02-28T02:47:06.555Z,32.30
2019-02-28T02:49:33.587Z,31.68
2019-02-28T02:52:00.606Z,32.45
2019-02-28T02:54:27.770Z,29.87
2019-02-28T02:56:54.848Z,31.10
2019-02-28T02:59:22.495Z,32.03
2019-02-28T03:01:49.556Z,30.23
2019-02-28T03:04:22.002Z,32.10
2019-02-28T03:06:46.727Z,34.05
2019-02-28T03:09:14.010Z,32.83
2019-02-28T03:11:41.025Z,31.93
2019-02-28T03:14:07.996Z,31.82
2019-02-28T03:16:36.046Z,32.35
2019-02-28T03:19:03.332Z,33.92
2019-02-28T03:21:30.392Z,32.85
2019-02-28T03:23:57.684Z,33.85
2019-02-28T03:26:24.812Z,34.03
2019-02-28T03:28:51.768Z,32.83
2019-02-28T03:31:18.785Z,33.58
2019-02-28T03:33:46.261Z,34.05
2019-02-28T03:36:15.675Z,33.75
2019-02-28T03:38:48.285Z,34.80
2019-02-28T03:41:16.099Z,34.38
2019-02-28T03:43:43.773Z,35.25
2019-02-28T03:46:10.173Z,35.08
2019-02-28T03:48:38.127Z,34.90
2019-02-28T03:51:05.101Z,34.23
2019-02-28T03:53:32.071Z,33.25
2019-02-28T03:55:59.509Z,36.17
2019-02-28T03:58:26.494Z,34.60
2019-02-28T04:00:53.601Z,35.83
2019-02-28T04:03:20.892Z,34.13
2019-02-28T04:05:48.686Z,35.95
2019-02-28T04:08:15.801Z,37.53
2019-02-28T04:10:42.915Z,36.58
2019-02-28T04:13:09.946Z,35.08
2019-02-28T04:15:37.011Z,36.15
2019-02-28T04:18:07.586Z,37.30
2019-02-28T04:20:37.580Z,37.90
2019-02-28T04:23:02.056Z,39.45
2019-02-28T04:25:29.037Z,35.80
2019-02-28T04:27:56.392Z,38.88
2019-02-28T04:30:23.477Z,36.88
2019-02-28T04:32:50.790Z,37.53
2019-02-28T04:35:24.365Z,38.42
2019-02-28T04:37:47.329Z,37.33
2019-02-28T04:40:14.789Z,37.98
2019-02-28T04:42:42.218Z,37.67
2019-02-28T04:45:09.402Z,36.40
2019-02-28T04:47:37.233Z,38.88
2019-02-28T04:50:05.788Z,37.33
2019-02-28T04:52:32.871Z,38.10
2019-02-28T04:55:02.886Z,37.08
2019-02-28T04:57:29.044Z,38.75
2019-02-28T04:59:56.329Z,37.53
2019-02-28T05:02:23.346Z,38.60
2019-02-28T05:04:50.336Z,39.27
2019-02-28T05:07:18.535Z,37.85
2019-02-28T05:09:48.143Z,39.60
2019-02-28T05:12:14.792Z,38.78
2019-02-28T05:14:41.802Z,39.70
2019-02-28T05:17:08.903Z,38.17
2019-02-28T05:19:36.579Z,37.48
2019-02-28T05:22:03.727Z,38.15
2019-02-28T05:24:31.013Z,37.83
2019-02-28T05:27:00.124Z,37.25
2019-02-28T05:29:27.509Z,37.40
2019-02-28T05:31:54.524Z,40.17
2019-02-28T05:34:21.943Z,39.40
2019-02-28T05:36:49.270Z,40.10
2019-02-28T05:39:16.359Z,38.88
2019-02-28T05:41:49.004Z,38.33
2019-02-28T05:44:12.977Z,39.92
2019-02-28T05:46:40.190Z,39.60
2019-02-28T05:49:08.985Z,39.63
2019-02-28T05:51:36.997Z,40.83
2019-02-28T05:54:03.959Z,37.25
2019-02-28T05:56:33.269Z,40.58
2019-02-28T05:59:00.240Z,40.08
2019-02-28T06:01:27.252Z,38.55
2019-02-28T06:03:54.797Z,39.18
2019-02-28T06:06:21.763Z,38.80
2019-02-28T06:08:48.987Z,40.43
2019-02-28T06:11:15.960Z,37.15
2019-02-28T06:13:43.155Z,38.95
2019-02-28T06:16:12.298Z,39.88
2019-02-28T06:18:39.343Z,40.38
2019-02-28T06:21:06.574Z,39.42
2019-02-28T06:23:33.567Z,40.88
2019-02-28T06:26:00.795Z,41.18
2019-02-28T06:28:30.966Z,42.20
2019-02-28T06:31:00.151Z,40.60
2019-02-28T06:33:30.693Z,42.13
2019-02-28T06:35:56.508Z,41.10
2019-02-28T06:38:23.493Z,41.83
2019-02-28T06:40:50.868Z,41.30
2019-02-28T06:43:19.499Z,40.40
2019-02-28T06:45:47.131Z,43.10
2019-02-28T06:48:14.223Z,43.48
2019-02-28T06:50:41.230Z,42.98
2019-02-28T06:53:08.188Z,40.17
2019-02-28T06:55:47.052Z,40.50
2019-02-28T06:58:15.431Z,45.05
2019-02-28T07:00:44.185Z,43.78
2019-02-28T07:03:12.590Z,45.25
2019-02-28T07:05:39.618Z,46.30
2019-02-28T07:08:06.689Z,44.50
2019-02-28T07:10:33.663Z,45.38
2019-02-28T07:13:03.981Z,42.08
2019-02-28T07:15:30.229Z,44.95
2019-02-28T07:17:57.434Z,47.60
2019-02-28T07:20:24.563Z,45.35
2019-02-28T07:22:54.937Z,46.05
2019-02-28T07:25:21.044Z,46.90
2019-02-28T07:27:48.391Z,46.40
2019-02-28T07:30:18.757Z,46.35
2019-02-28T07:32:44.519Z,46.30
2019-02-28T07:35:11.706Z,45.98
2019-02-28T07:37:38.995Z,46.83
2019-02-28T07:40:09.030Z,48.35
2019-02-28T07:42:37.547Z,45.30
2019-02-28T07:45:06.149Z,44.30
2019-02-28T07:47:33.610Z,47.13
2019-02-28T07:50:00.648Z,47.67
2019-02-28T07:52:32.464Z,44.98
2019-02-28T07:54:56.614Z,44.30
2019-02-28T07:57:23.777Z,43.20
2019-02-28T07:59:50.988Z,44.40
2019-02-28T08:02:18.255Z,44.93
2019-02-28T08:04:47.369Z,45.58
2019-02-28T08:07:16.404Z,44.18
2019-02-28T08:09:43.686Z,44.00
2019-02-28T08:12:12.773Z,42.25
2019-02-28T08:14:43.684Z,42.08
2019-02-28T08:17:09.973Z,43.33
2019-02-28T08:19:38.658Z,43.48
2019-02-28T08:22:05.762Z,42.55
2019-02-28T08:24:35.788Z,41.00
2019-02-28T08:27:02.504Z,41.85
2019-02-28T08:29:29.439Z,43.63
2019-02-28T08:31:57.536Z,41.65
2019-02-28T08:34:25.015Z,41.25
2019-02-28T08:36:53.006Z,42.95
2019-02-28T08:39:20.277Z,38.98
2019-02-28T08:41:47.326Z,38.20
2019-02-28T08:44:14.513Z,38.00
2019-02-28T08:46:46.528Z,37.38
2019-02-28T08:49:14.493Z,37.25
2019-02-28T08:51:43.177Z,32.65
2019-02-28T08:54:14.354Z,34.33
2019-02-28T08:56:41.324Z,32.95
2019-02-28T08:59:11.981Z,34.83
2019-02-28T09:01:41.000Z,31.35
2019-02-28T09:04:09.536Z,31.12
2019-02-28T09:06:37.878Z,29.42
2019-02-28T09:09:09.372Z,27.93
2019-02-28T09:11:36.720Z,28.75
2019-02-28T09:14:03.911Z,28.15
2019-02-28T09:16:31.495Z,25.50
2019-02-28T09:19:00.934Z,26.15
2019-02-28T09:21:27.897Z,25.48
2019-02-28T09:23:56.175Z,24.87
2019-02-28T09:26:23.294Z,24.35
2019-02-28T09:28:50.323Z,24.55
2019-02-28T09:31:17.501Z,21.90
2019-02-28T09:33:45.256Z,24.35
2019-02-28T09:36:12.311Z,24.05
2019-02-28T09:38:42.235Z,19.12
2019-02-28T09:41:09.886Z,17.50
2019-02-28T09:43:37.229Z,16.27
2019-02-28T09:46:04.459Z,18.57
2019-02-28T09:48:33.976Z,18.05
2019-02-28T09:51:00.739Z,17.50
2019-02-28T09:53:29.222Z,15.45
2019-02-28T09:55:56.375Z,15.75
2019-02-28T09:58:26.185Z,16.02
2019-02-28T10:00:52.833Z,15.08
2019-02-28T10:03:20.914Z,16.05
2019-02-28T10:05:48.025Z,16.15
2019-02-28T10:08:15.120Z,15.78
2019-02-28T10:10:42.347Z,16.40
2019-02-28T10:13:09.499Z,16.27
2019-02-28T10:15:38.683Z,15.93
2019-02-28T10:18:06.205Z,14.33
2019-02-28T10:20:33.592Z,16.32
2019-02-28T10:23:00.923Z,15.80
2019-02-28T10:25:28.036Z,16.00
2019-02-28T10:27:55.264Z,15.35
2019-02-28T10:30:31.155Z,16.05
2019-02-28T10:32:51.623Z,15.48
2019-02-28T10:35:19.146Z,13.83
2019-02-28T10:37:46.407Z,15.08
2019-02-28T10:40:17.854Z,15.48
2019-02-28T10:42:45.240Z,14.07
2019-02-28T10:45:13.007Z,14.78
2019-02-28T10:47:40.127Z,13.50
2019-02-28T10:50:10.686Z,14.53
2019-02-28T10:52:38.158Z,15.55
2019-02-28T10:55:06.630Z,14.83
2019-02-28T10:57:33.811Z,13.78
2019-02-28T11:00:00.879Z,14.20
2019-02-28T11:02:28.244Z,15.10
2019-02-28T11:04:55.631Z,14.25
2019-02-28T11:07:22.655Z,14.03
2019-02-28T11:09:55.603Z,14.75
2019-02-28T11:12:23.706Z,15.70
2019-02-28T11:14:50.658Z,15.10
2019-02-28T11:17:17.967Z,14.20
2019-02-28T11:19:45.089Z,14.20
2019-02-28T11:22:13.497Z,16.30
2019-02-28T11:24:40.664Z,14.33
2019-02-28T11:27:08.192Z,14.58
2019-02-28T11:29:36.372Z,13.85
2019-02-28T11:32:03.775Z,13.32
2019-02-28T11:34:31.647Z,14.38
2019-02-28T11:36:58.851Z,14.73
2019-02-28T11:39:27.579Z,13.72
2019-02-28T11:41:55.081Z,15.00
2019-02-28T11:44:22.234Z,12.35
2019-02-28T11:46:49.228Z,13.13
2019-02-28T11:49:16.622Z,14.68
2019-02-28T11:51:43.881Z,14.33
2019-02-28T11:54:12.300Z,13.22
2019-02-28T11:56:43.449Z,13.40
2019-02-28T11:59:12.419Z,13.65
2019-02-28T12:01:42.488Z,12.73
2019-02-28T12:04:08.475Z,12.20
2019-02-28T12:06:35.715Z,13.85
2019-02-28T12:09:05.131Z,12.95
2019-02-28T12:11:36.510Z,13.18
2019-02-28T12:14:02.992Z,13.05
2019-02-28T12:16:30.131Z,13.75
2019-02-28T12:18:57.240Z,13.03
2019-02-28T12:21:24.338Z,14.05
2019-02-28T12:23:54.242Z,12.68
2019-02-28T12:26:21.120Z,14.23
2019-02-28T12:28:48.395Z,13.80
2019-02-28T12:31:15.686Z,12.65
2019-02-28T12:33:43.259Z,13.08
2019-02-28T12:36:11.222Z,12.30
2019-02-28T12:38:39.365Z,12.23
2019-02-28T12:41:06.705Z,11.97
2019-02-28T12:43:34.111Z,12.50
2019-02-28T12:46:01.389Z,12.13
2019-02-28T12:48:28.707Z,13.25
2019-02-28T12:50:55.968Z,13.88
2019-02-28T12:53:25.324Z,13.90
2019-02-28T12:55:53.952Z,12.90
2019-02-28T12:58:20.997Z,13.25
2019-02-28T13:00:48.361Z,14.45
2019-02-28T13:03:19.134Z,12.93
2019-02-28T13:05:47.840Z,11.90
2019-02-28T13:08:13.891Z,13.68
2019-02-28T13:10:42.234Z,13.35
2019-02-28T13:13:09.543Z,12.93
2019-02-28T13:15:36.615Z,11.75
2019-02-28T13:18:09.069Z,13.55
2019-02-28T13:20:36.259Z,14.63
2019-02-28T13:23:03.403Z,14.07
2019-02-28T13:25:30.476Z,14.68
2019-02-28T13:27:57.546Z,14.18
2019-02-28T13:30:24.583Z,14.10
2019-02-28T13:32:52.006Z,18.07
2019-02-28T13:35:21.477Z,18.12
2019-02-28T13:37:48.971Z,22.40
2019-02-28T13:40:17.567Z,22.17
2019-02-28T13:42:45.014Z,16.50
2019-02-28T13:45:14.760Z,20.90
2019-02-28T13:47:46.360Z,20.00
2019-02-28T13:50:22.069Z,18.32
2019-02-28T13:52:52.030Z,18.10
2019-02-28T13:55:19.029Z,20.77
2019-02-28T13:57:47.048Z,18.42
2019-02-28T14:00:22.527Z,19.20
2019-02-28T14:02:51.435Z,18.77
2019-02-28T14:05:18.569Z,18.25
2019-02-28T14:07:45.746Z,18.62
2019-02-28T14:10:13.570Z,19.70
2019-02-28T14:12:41.032Z,16.62
2019-02-28T14:15:09.806Z,19.12
2019-02-28T14:17:36.922Z,16.32
2019-02-28T14:20:04.496Z,14.73
2019-02-28T14:22:31.734Z,15.08
2019-02-28T14:24:58.922Z,14.13
2019-02-28T14:27:27.287Z,13.35
2019-02-28T14:29:54.414Z,14.33
2019-02-28T14:32:21.640Z,14.65
2019-02-28T14:34:49.153Z,13.75
2019-02-28T14:37:16.811Z,13.48
2019-02-28T14:39:45.532Z,14.63
2019-02-28T14:42:12.791Z,16.37
2019-02-28T14:44:39.806Z,15.13
2019-02-28T14:47:06.952Z,15.68
2019-02-28T14:49:34.139Z,16.80
2019-02-28T14:52:03.648Z,14.58
2019-02-28T14:54:30.251Z,15.88
2019-02-28T14:56:57.360Z,13.32
2019-02-28T14:59:24.755Z,16.97
2019-02-28T15:01:53.097Z,17.87
2019-02-28T15:04:22.287Z,13.75
2019-02-28T15:06:49.369Z,12.75
2019-02-28T15:09:16.819Z,11.68
2019-02-28T15:11:46.852Z,11.30
2019-02-28T15:14:13.715Z,10.65
2019-02-28T15:16:41.373Z,13.15
2019-02-28T15:19:08.482Z,10.93
2019-02-28T15:21:35.474Z,11.97
2019-02-28T15:24:05.402Z,11.63
2019-02-28T15:26:33.119Z,11.65
2019-02-28T15:29:00.737Z,12.03
2019-02-28T15:31:28.065Z,12.58
2019-02-28T15:33:55.031Z,11.22
2019-02-28T15:36:24.150Z,11.20
2019-02-28T15:38:51.067Z,11.88
2019-02-28T15:41:18.632Z,11.43
2019-02-28T15:43:47.135Z,11.57
2019-02-28T15:46:15.994Z,11.43
2019-02-28T15:48:43.012Z,11.00
2019-02-28T15:51:12.401Z,11.22
2019-02-28T15:53:39.590Z,11.05
2019-02-28T15:56:13.427Z,14.13
2019-02-28T15:58:37.736Z,11.80
2019-02-28T16:01:05.300Z,12.78
2019-02-28T16:03:32.498Z,11.00
2019-02-28T16:05:59.751Z,11.78
2019-02-28T16:08:28.465Z,11.90
2019-02-28T16:10:55.926Z,10.88
2019-02-28T16:13:25.784Z,11.05
2019-02-28T16:15:52.744Z,13.03
2019-02-28T16:18:20.619Z,12.00
2019-02-28T16:20:47.834Z,12.85
2019-02-28T16:23:16.006Z,13.03
2019-02-28T16:25:43.176Z,12.37
2019-02-28T16:28:10.575Z,11.40
2019-02-28T16:30:37.930Z,11.35
2019-02-28T16:33:05.155Z,11.85
2019-02-28T16:35:32.391Z,12.25
2019-02-28T16:37:59.371Z,11.95
2019-02-28T16:40:27.223Z,10.93
2019-02-28T16:42:54.811Z,11.55
2019-02-28T16:45:29.037Z,12.58
2019-02-28T16:47:59.549Z,13.00
2019-02-28T16:50:25.629Z,13.45
2019-02-28T16:52:53.230Z,13.38
2019-02-28T16:55:20.379Z,13.30
2019-02-28T16:57:48.040Z,13.53
2019-02-28T17:00:16.572Z,14.30
2019-02-28T17:02:43.855Z,13.95
2019-02-28T17:05:11.355Z,12.90
2019-02-28T17:07:40.444Z,12.40
2019-02-28T17:10:12.032Z,16.87
2019-02-28T17:12:59.522Z,14.65
2019-02-28T17:15:41.153Z,15.40
2019-02-28T17:18:13.223Z,16.23
2019-02-28T17:20:42.950Z,15.13
2019-02-28T17:23:11.167Z,14.98
2019-02-28T17:25:38.615Z,15.90
2019-02-28T17:28:31.263Z,25.52
2019-02-28T17:31:29.114Z,13.90
2019-02-28T17:33:56.604Z,14.18
2019-02-28T17:36:23.882Z,12.23
2019-02-28T17:38:51.048Z,13.40
2019-02-28T17:41:18.287Z,11.93
2019-02-28T17:44:09.379Z,10.68
2019-02-28T17:46:36.742Z,11.73
2019-02-28T17:49:51.911Z,11.97
2019-02-28T17:52:25.207Z,10.70
2019-02-28T17:55:26.893Z,11.80
2019-02-28T17:58:01.233Z,12.10
2019-02-28T18:00:56.521Z,11.00
2019-02-28T18:03:50.911Z,12.00
2019-02-28T18:06:33.051Z,12.53
2019-02-28T18:09:28.555Z,13.22
2019-02-28T18:12:56.386Z,13.05
2019-02-28T18:16:01.944Z,11.88
2019-02-28T18:18:51.896Z,12.80
2019-02-28T18:21:58.119Z,11.95
2019-02-28T18:25:07.811Z,12.07
2019-02-28T18:28:00.950Z,13.10
2019-02-28T18:31:09.508Z,11.65
2019-02-28T18:33:41.878Z,11.28
2019-02-28T18:36:14.148Z,11.57
2019-02-28T18:38:41.246Z,13.22
2019-02-28T18:41:08.484Z,11.57
2019-02-28T18:43:36.152Z,11.78
2019-02-28T18:46:04.139Z,12.20
2019-02-28T18:48:31.243Z,13.30
2019-02-28T18:50:58.325Z,12.15
2019-02-28T19:11:04.186Z,17.25
2019-02-28T19:13:31.677Z,19.80
2019-02-28T19:15:59.202Z,18.75
2019-02-28T19:18:26.703Z,22.45
2019-02-28T19:20:57.260Z,23.22
2019-02-28T19:23:25.003Z,21.90
2019-02-28T19:25:52.679Z,18.82
2019-02-28T19:28:22.015Z,17.62
2019-02-28T19:30:49.491Z,22.27
2019-02-28T19:33:16.883Z,18.02
2019-02-28T19:35:45.400Z,17.77
2019-02-28T19:38:13.026Z,17.48
2019-02-28T19:40:40.621Z,17.52
2019-02-28T19:43:08.130Z,16.97
2019-02-28T19:45:36.053Z,17.17
2019-02-28T19:48:03.648Z,16.05
2019-02-28T19:50:31.406Z,16.73
2019-02-28T19:52:58.606Z,14.38
2019-02-28T19:55:26.355Z,14.55
2019-02-28T19:57:55.843Z,13.80
2019-02-28T20:00:23.295Z,14.68
2019-02-28T20:02:56.232Z,15.70
2019-02-28T20:05:23.779Z,13.95
2019-02-28T20:07:51.992Z,18.05
2019-02-28T20:10:20.434Z,18.27
2019-02-28T20:12:53.262Z,21.27
2019-02-28T20:15:28.907Z,16.65
2019-02-28T20:17:56.143Z,18.45
2019-02-28T20:20:23.846Z,19.55
2019-02-28T20:22:51.759Z,22.22
2019-02-28T20:25:19.173Z,19.15
2019-02-28T20:27:46.519Z,18.10
2019-02-28T20:30:15.550Z,20.52
2019-02-28T20:32:43.489Z,20.65
2019-02-28T20:35:10.902Z,19.15
2019-02-28T20:37:38.452Z,19.62
2019-02-28T20:40:07.535Z,19.37
2019-02-28T20:42:34.719Z,18.70
2019-02-28T20:45:01.943Z,17.17
2019-02-28T20:47:30.334Z,17.70
2019-02-28T20:49:57.475Z,15.93
2019-02-28T20:52:24.510Z,14.23
2019-02-28T20:54:51.874Z,14.83
2019-02-28T20:57:19.015Z,13.58
2019-02-28T20:59:46.325Z,14.85
2019-02-28T21:02:13.815Z,13.93
2019-02-28T21:04:41.207Z,13.93
2019-02-28T21:07:08.848Z,12.95
2019-02-28T21:09:45.112Z,13.68
2019-02-28T21:12:14.454Z,13.95
2019-02-28T21:14:41.630Z,13.40
2019-02-28T21:17:09.473Z,12.85
2019-02-28T21:19:36.516Z,14.25
2019-02-28T21:22:03.770Z,13.83
2019-02-28T21:24:31.835Z,12.40
2019-02-28T21:26:59.030Z,13.00
2019-02-28T21:29:26.982Z,13.30
2019-02-28T21:31:54.148Z,13.62
2019-02-28T21:34:21.433Z,13.10
2019-02-28T21:36:48.666Z,12.28
2019-02-28T21:39:16.183Z,11.85
2019-02-28T21:41:45.640Z,11.73
2019-02-28T21:44:12.847Z,12.45
2019-02-28T21:46:39.951Z,10.82
2019-02-28T21:49:07.311Z,11.83
2019-02-28T21:51:34.548Z,11.05
2019-02-28T21:54:02.675Z,12.07
2019-02-28T21:56:29.652Z,12.03
2019-02-28T21:58:58.922Z,11.80
2019-02-28T22:01:26.600Z,11.53
2019-02-28T22:03:53.820Z,11.70
2019-02-28T22:06:20.843Z,11.65
2019-02-28T22:08:48.052Z,11.43
2019-02-28T22:11:15.288Z,11.05
2019-02-28T22:13:42.747Z,10.68
2019-02-28T22:16:10.190Z,10.55
2019-02-28T22:18:37.570Z,11.70
2019-02-28T22:21:04.936Z,10.55
2019-02-28T22:23:31.955Z,10.48
2019-02-28T22:25:59.140Z,11.08
2019-02-28T22:28:26.137Z,10.50
2019-02-28T22:31:12.873Z,12.55
2019-02-28T22:33:44.507Z,10.95
2019-02-28T22:36:13.994Z,12.93
2019-02-28T22:38:41.483Z,10.93
2019-02-28T22:41:08.457Z,11.57
2019-02-28T22:43:35.666Z,12.65
2019-02-28T22:46:03.220Z,12.88
2019-02-28T22:48:30.625Z,12.18
2019-02-28T22:50:59.295Z,12.43
2019-02-28T22:53:26.561Z,11.93
2019-02-28T22:55:53.618Z,12.70
2019-02-28T22:58:20.650Z,12.10
2019-02-28T23:01:10.006Z,14.28
2019-02-28T23:03:37.839Z,13.60
2019-02-28T23:06:05.447Z,14.25
2019-02-28T23:08:33.185Z,13.25
2019-02-28T23:11:00.266Z,14.68
2019-02-28T23:13:27.472Z,13.68
2019-02-28T23:15:54.842Z,14.87
2019-02-28T23:18:22.148Z,14.13
2019-02-28T23:20:49.507Z,14.25
2019-02-28T23:23:16.484Z,16.82
2019-02-28T23:25:43.710Z,14.95
2019-02-28T23:28:21.988Z,15.40
2019-02-28T23:31:16.038Z,15.08
2019-02-28T23:33:43.053Z,15.45
2019-02-28T23:36:10.379Z,14.83
2019-02-28T23:38:37.404Z,13.90
2019-02-28T23:41:04.730Z,14.93
2019-02-28T23:43:31.818Z,13.85
2019-02-28T23:45:58.798Z,13.65
2019-02-28T23:48:26.121Z,13.95
2019-02-28T23:50:53.523Z,12.65
2019-02-28T23:53:21.224Z,12.30
2019-02-28T23:55:48.298Z,12.98
2019-02-28T23:58:15.302Z,12.88
